sensor_id;sensor_type;location;lat;lon;timestamp;pressure;altitude;pressure_sealevel;temperature;humidity
53550;BME280;67273;52.914;-0.982;2023-03-08T00:00:50;99483.94;;;16.74;35.93
53550;BME280;67273;52.914;-0.982;2023-03-08T00:03:16;99483.94;;;16.74;36.25
53550;BME280;67273;52.914;-0.982;2023-03-08T00:05:42;99477.94;;;16.72;36.16
53550;BME280;67273;52.914;-0.982;2023-03-08T00:08:07;99475.47;;;16.70;36.31
53550;BME280;67273;52.914;-0.982;2023-03-08T00:10:35;99480.09;;;16.70;36.11
53550;BME280;67273;52.914;-0.982;2023-03-08T00:13:01;99478.44;;;16.69;36.13
53550;BME280;67273;52.914;-0.982;2023-03-08T00:15:27;99477.88;;;16.67;36.02
53550;BME280;67273;52.914;-0.982;2023-03-08T00:17:53;99471.91;;;16.65;36.33
53550;BME280;67273;52.914;-0.982;2023-03-08T00:20:18;99465.88;;;16.63;36.36
53550;BME280;67273;52.914;-0.982;2023-03-08T00:22:44;99472.41;;;16.62;36.49
53550;BME280;67273;52.914;-0.982;2023-03-08T00:25:10;99477.00;;;16.61;36.04
53550;BME280;67273;52.914;-0.982;2023-03-08T00:27:37;99469.13;;;16.60;36.05
53550;BME280;67273;52.914;-0.982;2023-03-08T00:30:04;99462.88;;;16.59;36.13
53550;BME280;67273;52.914;-0.982;2023-03-08T00:32:30;99459.59;;;16.57;36.11
53550;BME280;67273;52.914;-0.982;2023-03-08T00:34:57;99458.78;;;16.57;36.12
53550;BME280;67273;52.914;-0.982;2023-03-08T00:37:22;99455.50;;;16.54;36.48
53550;BME280;67273;52.914;-0.982;2023-03-08T00:39:49;99456.81;;;16.52;36.25
53550;BME280;67273;52.914;-0.982;2023-03-08T00:42:16;99456.00;;;16.51;36.12
53550;BME280;67273;52.914;-0.982;2023-03-08T00:44:43;99450.59;;;16.51;36.20
53550;BME280;67273;52.914;-0.982;2023-03-08T00:47:10;99452.75;;;16.49;36.19
53550;BME280;67273;52.914;-0.982;2023-03-08T00:49:36;99438.38;;;16.49;36.25
53550;BME280;67273;52.914;-0.982;2023-03-08T00:52:02;99437.53;;;16.48;36.29
53550;BME280;67273;52.914;-0.982;2023-03-08T00:54:28;99421.56;;;16.47;36.12
53550;BME280;67273;52.914;-0.982;2023-03-08T00:56:54;99425.56;;;16.44;36.28
53550;BME280;67273;52.914;-0.982;2023-03-08T00:59:20;99416.63;;;16.44;36.18
53550;BME280;67273;52.914;-0.982;2023-03-08T01:01:48;99419.59;;;16.42;36.14
53550;BME280;67273;52.914;-0.982;2023-03-08T01:04:13;99416.88;;;16.42;36.36
53550;BME280;67273;52.914;-0.982;2023-03-08T01:06:39;99421.50;;;16.42;36.17
53550;BME280;67273;52.914;-0.982;2023-03-08T01:09:09;99417.94;;;16.41;36.32
53550;BME280;67273;52.914;-0.982;2023-03-08T01:11:35;99413.88;;;16.39;35.94
53550;BME280;67273;52.914;-0.982;2023-03-08T01:14:02;99422.00;;;16.39;36.15
53550;BME280;67273;52.914;-0.982;2023-03-08T01:16:29;99422.25;;;16.37;36.30
53550;BME280;67273;52.914;-0.982;2023-03-08T01:18:59;99419.78;;;16.35;36.13
53550;BME280;67273;52.914;-0.982;2023-03-08T01:21:27;99417.31;;;16.34;36.23
53550;BME280;67273;52.914;-0.982;2023-03-08T01:23:53;99416.25;;;16.35;36.15
53550;BME280;67273;52.914;-0.982;2023-03-08T01:26:20;99413.81;;;16.33;35.97
53550;BME280;67273;52.914;-0.982;2023-03-08T01:28:47;99410.28;;;16.33;36.14
53550;BME280;67273;52.914;-0.982;2023-03-08T01:31:15;99410.28;;;16.33;36.26
53550;BME280;67273;52.914;-0.982;2023-03-08T01:33:42;99405.34;;;16.30;36.21
53550;BME280;67273;52.914;-0.982;2023-03-08T01:36:11;99405.34;;;16.30;36.25
53550;BME280;67273;52.914;-0.982;2023-03-08T01:38:37;99404.56;;;16.29;36.61
53550;BME280;67273;52.914;-0.982;2023-03-08T01:41:07;99401.84;;;16.29;36.15
53550;BME280;67273;52.914;-0.982;2023-03-08T01:43:35;99398.56;;;16.27;36.14
53550;BME280;67273;52.914;-0.982;2023-03-08T01:46:14;99387.13;;;16.25;36.11
53550;BME280;67273;52.914;-0.982;2023-03-08T01:48:47;99383.63;;;16.25;36.30
53550;BME280;67273;52.914;-0.982;2023-03-08T01:51:21;99386.31;;;16.25;36.29
53550;BME280;67273;52.914;-0.982;2023-03-08T01:53:49;99381.16;;;16.23;36.50
53550;BME280;67273;52.914;-0.982;2023-03-08T01:56:16;99364.91;;;16.23;36.26
53550;BME280;67273;52.914;-0.982;2023-03-08T01:58:44;99365.16;;;16.22;36.27
53550;BME280;67273;52.914;-0.982;2023-03-08T02:01:13;99363.53;;;16.21;36.16
53550;BME280;67273;52.914;-0.982;2023-03-08T02:03:39;99358.09;;;16.21;36.21
53550;BME280;67273;52.914;-0.982;2023-03-08T02:06:05;99360.25;;;16.19;36.26
53550;BME280;67273;52.914;-0.982;2023-03-08T02:08:34;99355.91;;;16.18;36.08
53550;BME280;67273;52.914;-0.982;2023-03-08T02:11:00;99345.31;;;16.16;36.22
53550;BME280;67273;52.914;-0.982;2023-03-08T02:13:26;99344.50;;;16.15;36.24
53550;BME280;67273;52.914;-0.982;2023-03-08T02:15:54;99330.41;;;16.13;36.57
53550;BME280;67273;52.914;-0.982;2023-03-08T02:18:22;99324.97;;;16.13;36.19
53550;BME280;67273;52.914;-0.982;2023-03-08T02:20:48;99323.31;;;16.12;36.14
53550;BME280;67273;52.914;-0.982;2023-03-08T02:23:16;99317.91;;;16.12;36.25
53550;BME280;67273;52.914;-0.982;2023-03-08T02:25:50;99316.28;;;16.11;36.13
53550;BME280;67273;52.914;-0.982;2023-03-08T02:28:16;99296.72;;;16.09;36.25
53550;BME280;67273;52.914;-0.982;2023-03-08T02:30:42;99296.72;;;16.09;36.52
53550;BME280;67273;52.914;-0.982;2023-03-08T02:33:08;99295.13;;;16.08;36.65
53550;BME280;67273;52.914;-0.982;2023-03-08T02:35:34;99281.81;;;16.07;36.39
53550;BME280;67273;52.914;-0.982;2023-03-08T02:38:01;99269.34;;;16.06;36.58
53550;BME280;67273;52.914;-0.982;2023-03-08T02:40:33;99273.94;;;16.05;36.45
53550;BME280;67273;52.914;-0.982;2023-03-08T02:42:59;99264.44;;;16.03;36.60
53550;BME280;67273;52.914;-0.982;2023-03-08T02:45:25;99259.84;;;16.03;36.30
53550;BME280;67273;52.914;-0.982;2023-03-08T02:47:50;99268.22;;;16.02;36.52
53550;BME280;67273;52.914;-0.982;2023-03-08T02:50:17;99268.22;;;16.02;36.18
53550;BME280;67273;52.914;-0.982;2023-03-08T02:52:43;99263.06;;;16.00;36.34
53550;BME280;67273;52.914;-0.982;2023-03-08T02:55:09;99256.03;;;15.99;36.56
53550;BME280;67273;52.914;-0.982;2023-03-08T02:57:40;99243.53;;;15.98;36.50
53550;BME280;67273;52.914;-0.982;2023-03-08T03:00:09;99245.44;;;15.98;36.58
53550;BME280;67273;52.914;-0.982;2023-03-08T03:02:35;99243.78;;;15.96;36.42
53550;BME280;67273;52.914;-0.982;2023-03-08T03:05:02;99242.16;;;15.95;36.18
53550;BME280;67273;52.914;-0.982;2023-03-08T03:07:28;99228.88;;;15.94;36.70
53550;BME280;67273;52.914;-0.982;2023-03-08T03:09:54;99232.66;;;15.93;36.38
53550;BME280;67273;52.914;-0.982;2023-03-08T03:12:20;99236.44;;;15.92;36.56
53550;BME280;67273;52.914;-0.982;2023-03-08T03:14:47;99235.59;;;15.91;36.66
53550;BME280;67273;52.914;-0.982;2023-03-08T03:17:15;99226.66;;;15.91;36.65
53550;BME280;67273;52.914;-0.982;2023-03-08T03:19:41;99226.66;;;15.91;36.50
53550;BME280;67273;52.914;-0.982;2023-03-08T03:22:07;99226.13;;;15.89;36.15
53550;BME280;67273;52.914;-0.982;2023-03-08T03:24:34;99221.75;;;15.88;36.24
53550;BME280;67273;52.914;-0.982;2023-03-08T03:27:00;99209.31;;;15.87;36.35
53550;BME280;67273;52.914;-0.982;2023-03-08T03:29:30;99209.31;;;15.87;36.44
53550;BME280;67273;52.914;-0.982;2023-03-08T03:32:07;99207.91;;;15.84;36.54
53550;BME280;67273;52.914;-0.982;2023-03-08T03:34:33;99201.69;;;15.84;36.67
53550;BME280;67273;52.914;-0.982;2023-03-08T03:36:59;99207.91;;;15.84;36.59
53550;BME280;67273;52.914;-0.982;2023-03-08T03:39:24;99204.66;;;15.82;36.50
53550;BME280;67273;52.914;-0.982;2023-03-08T03:41:51;99209.25;;;15.82;36.60
53550;BME280;67273;52.914;-0.982;2023-03-08T03:44:18;99216.56;;;15.81;36.49
53550;BME280;67273;52.914;-0.982;2023-03-08T03:46:46;99207.59;;;15.81;36.37
53550;BME280;67273;52.914;-0.982;2023-03-08T03:49:19;99201.63;;;15.78;36.78
53550;BME280;67273;52.914;-0.982;2023-03-08T03:51:46;99197.03;;;15.79;36.53
53550;BME280;67273;52.914;-0.982;2023-03-08T03:54:18;99188.09;;;15.78;36.34
53550;BME280;67273;52.914;-0.982;2023-03-08T03:56:45;99196.22;;;15.78;36.68
53550;BME280;67273;52.914;-0.982;2023-03-08T03:59:12;99192.94;;;15.76;36.48
53550;BME280;67273;52.914;-0.982;2023-03-08T04:01:38;99183.19;;;15.75;36.40
53550;BME280;67273;52.914;-0.982;2023-03-08T04:04:32;99181.56;;;15.74;36.35
53550;BME280;67273;52.914;-0.982;2023-03-08T04:06:59;99176.16;;;15.74;36.65
53550;BME280;67273;52.914;-0.982;2023-03-08T04:09:29;99170.72;;;15.74;36.53
53550;BME280;67273;52.914;-0.982;2023-03-08T04:12:05;99158.22;;;15.73;36.52
53550;BME280;67273;52.914;-0.982;2023-03-08T04:14:32;99165.53;;;15.73;36.74
53550;BME280;67273;52.914;-0.982;2023-03-08T04:16:58;99155.50;;;15.73;36.43
53550;BME280;67273;52.914;-0.982;2023-03-08T04:19:37;99152.25;;;15.71;36.49
53550;BME280;67273;52.914;-0.982;2023-03-08T04:22:03;99147.88;;;15.70;36.42
53550;BME280;67273;52.914;-0.982;2023-03-08T04:24:35;99150.59;;;15.70;36.91
53550;BME280;67273;52.914;-0.982;2023-03-08T04:27:06;99140.84;;;15.69;36.51
53550;BME280;67273;52.914;-0.982;2023-03-08T04:29:33;99143.56;;;15.69;36.61
53550;BME280;67273;52.914;-0.982;2023-03-08T04:32:02;99131.09;;;15.68;36.49
53550;BME280;67273;52.914;-0.982;2023-03-08T04:34:41;99128.63;;;15.67;36.34
53550;BME280;67273;52.914;-0.982;2023-03-08T04:37:15;99120.50;;;15.67;36.46
53550;BME280;67273;52.914;-0.982;2023-03-08T04:39:47;99114.28;;;15.66;36.56
53550;BME280;67273;52.914;-0.982;2023-03-08T04:42:17;99117.81;;;15.67;36.59
53550;BME280;67273;52.914;-0.982;2023-03-08T04:44:45;99106.41;;;15.65;36.53
53550;BME280;67273;52.914;-0.982;2023-03-08T04:47:15;99104.56;;;15.65;36.84
53550;BME280;67273;52.914;-0.982;2023-03-08T04:49:49;99111.03;;;15.64;36.81
53550;BME280;67273;52.914;-0.982;2023-03-08T04:52:18;99098.56;;;15.63;36.50
53550;BME280;67273;52.914;-0.982;2023-03-08T04:54:46;99103.16;;;15.63;36.44
53550;BME280;67273;52.914;-0.982;2023-03-08T04:57:20;99101.53;;;15.62;36.44
53550;BME280;67273;52.914;-0.982;2023-03-08T04:59:45;99099.09;;;15.60;36.48
53550;BME280;67273;52.914;-0.982;2023-03-08T05:02:16;99096.38;;;15.60;36.46
53550;BME280;67273;52.914;-0.982;2023-03-08T05:04:47;99089.31;;;15.59;36.41
53550;BME280;67273;52.914;-0.982;2023-03-08T05:07:16;99081.19;;;15.59;36.48
53550;BME280;67273;52.914;-0.982;2023-03-08T05:09:44;99074.97;;;15.58;36.39
53550;BME280;67273;52.914;-0.982;2023-03-08T05:12:11;99073.59;;;15.56;36.59
53550;BME280;67273;52.914;-0.982;2023-03-08T05:14:57;99072.53;;;15.57;36.61
53550;BME280;67273;52.914;-0.982;2023-03-08T05:17:27;99077.94;;;15.57;36.81
53550;BME280;67273;52.914;-0.982;2023-03-08T05:19:57;99076.28;;;15.56;36.42
53550;BME280;67273;52.914;-0.982;2023-03-08T05:22:33;99087.13;;;15.56;36.47
53550;BME280;67273;52.914;-0.982;2023-03-08T05:25:02;99080.09;;;15.55;36.49
53550;BME280;67273;52.914;-0.982;2023-03-08T05:27:33;99077.38;;;15.55;36.45
53550;BME280;67273;52.914;-0.982;2023-03-08T05:30:05;99078.44;;;15.54;36.55
53550;BME280;67273;52.914;-0.982;2023-03-08T05:32:35;99089.28;;;15.54;36.83
53550;BME280;67273;52.914;-0.982;2023-03-08T05:35:05;99079.53;;;15.53;36.57
53550;BME280;67273;52.914;-0.982;2023-03-08T05:37:35;99081.41;;;15.52;36.75
53550;BME280;67273;52.914;-0.982;2023-03-08T05:40:05;99079.78;;;15.51;36.68
53550;BME280;67273;52.914;-0.982;2023-03-08T05:42:38;99078.94;;;15.51;36.49
53550;BME280;67273;52.914;-0.982;2023-03-08T05:45:09;99081.66;;;15.51;36.71
53550;BME280;67273;52.914;-0.982;2023-03-08T05:47:39;99075.69;;;15.49;36.51
53550;BME280;67273;52.914;-0.982;2023-03-08T05:50:12;99079.22;;;15.49;36.76
53550;BME280;67273;52.914;-0.982;2023-03-08T05:52:41;99073.81;;;15.49;36.65
53550;BME280;67273;52.914;-0.982;2023-03-08T05:55:09;99064.84;;;15.49;36.77
53550;BME280;67273;52.914;-0.982;2023-03-08T05:57:36;99071.38;;;15.48;36.75
53550;BME280;67273;52.914;-0.982;2023-03-08T06:00:04;99056.19;;;15.47;36.70
53550;BME280;67273;52.914;-0.982;2023-03-08T06:02:42;99059.97;;;15.46;36.80
53550;BME280;67273;52.914;-0.982;2023-03-08T06:05:13;99059.97;;;15.46;36.92
53550;BME280;67273;52.914;-0.982;2023-03-08T06:07:39;99044.56;;;15.46;36.94
53550;BME280;67273;52.914;-0.982;2023-03-08T06:10:10;99044.81;;;15.45;36.73
53550;BME280;67273;52.914;-0.982;2023-03-08T06:12:38;99045.34;;;15.47;36.55
53550;BME280;67273;52.914;-0.982;2023-03-08T06:15:07;99041.06;;;15.51;36.44
53550;BME280;67273;52.914;-0.982;2023-03-08T06:17:35;99032.44;;;15.54;36.56
53550;BME280;67273;52.914;-0.982;2023-03-08T06:20:01;99034.13;;;15.60;36.32
53550;BME280;67273;52.914;-0.982;2023-03-08T06:22:30;99036.03;;;15.65;36.71
53550;BME280;67273;52.914;-0.982;2023-03-08T06:24:58;99045.00;;;15.70;36.44
53550;BME280;67273;52.914;-0.982;2023-03-08T06:27:29;99041.56;;;15.75;36.40
53550;BME280;67273;52.914;-0.982;2023-03-08T06:29:58;99039.16;;;15.78;36.68
53550;BME280;67273;52.914;-0.982;2023-03-08T06:32:25;99039.19;;;15.84;36.74
53550;BME280;67273;52.914;-0.982;2023-03-08T06:34:51;99041.41;;;15.87;36.31
53550;BME280;67273;52.914;-0.982;2023-03-08T06:37:17;99039.78;;;15.91;36.51
53550;BME280;67273;52.914;-0.982;2023-03-08T06:39:45;99039.03;;;15.95;36.26
53550;BME280;67273;52.914;-0.982;2023-03-08T06:42:10;99051.75;;;16.00;36.23
53550;BME280;67273;52.914;-0.982;2023-03-08T06:44:37;99065.34;;;16.05;36.11
53550;BME280;67273;52.914;-0.982;2023-03-08T06:47:03;99066.53;;;16.20;37.03
53550;BME280;67273;52.914;-0.982;2023-03-08T06:49:28;99067.59;;;16.19;36.67
53550;BME280;67273;52.914;-0.982;2023-03-08T06:51:54;99060.53;;;16.18;36.43
53550;BME280;67273;52.914;-0.982;2023-03-08T06:54:20;99052.72;;;16.21;36.69
53550;BME280;67273;52.914;-0.982;2023-03-08T06:56:48;99050.28;;;16.25;36.66
53550;BME280;67273;52.914;-0.982;2023-03-08T06:59:14;99053.03;;;16.30;36.44
53550;BME280;67273;52.914;-0.982;2023-03-08T07:01:39;99062.00;;;16.35;36.20
53550;BME280;67273;52.914;-0.982;2023-03-08T07:04:06;99055.81;;;16.40;36.49
53550;BME280;67273;52.914;-0.982;2023-03-08T07:06:32;99056.09;;;16.44;36.12
53550;BME280;67273;52.914;-0.982;2023-03-08T07:08:58;99051.22;;;16.46;36.09
53550;BME280;67273;52.914;-0.982;2023-03-08T07:11:24;99041.72;;;16.48;36.21
53550;BME280;67273;52.914;-0.982;2023-03-08T07:13:52;99030.63;;;16.50;35.72
53550;BME280;67273;52.914;-0.982;2023-03-08T07:16:18;99042.31;;;16.50;35.58
53550;BME280;67273;52.914;-0.982;2023-03-08T07:18:44;99045.56;;;16.52;35.63
53550;BME280;67273;52.914;-0.982;2023-03-08T07:21:10;99047.19;;;16.53;35.53
53550;BME280;67273;52.914;-0.982;2023-03-08T07:23:36;99047.19;;;16.53;35.29
53550;BME280;67273;52.914;-0.982;2023-03-08T07:26:03;99048.81;;;16.54;35.55
53550;BME280;67273;52.914;-0.982;2023-03-08T07:28:29;99051.00;;;16.52;35.62
53550;BME280;67273;52.914;-0.982;2023-03-08T07:30:56;99044.22;;;16.55;35.74
53550;BME280;67273;52.914;-0.982;2023-03-08T07:33:22;99051.53;;;16.54;35.49
53550;BME280;67273;52.914;-0.982;2023-03-08T07:35:48;99052.34;;;16.55;35.44
53550;BME280;67273;52.914;-0.982;2023-03-08T07:38:14;99052.34;;;16.55;35.32
53550;BME280;67273;52.914;-0.982;2023-03-08T07:40:40;99048.56;;;16.56;34.99
53550;BME280;67273;52.914;-0.982;2023-03-08T07:43:06;99047.72;;;16.56;35.51
53550;BME280;67273;52.914;-0.982;2023-03-08T07:45:44;99044.22;;;16.55;35.40
53550;BME280;67273;52.914;-0.982;2023-03-08T07:48:11;99048.81;;;16.54;35.41
53550;BME280;67273;52.914;-0.982;2023-03-08T07:50:37;99037.97;;;16.54;35.58
53550;BME280;67273;52.914;-0.982;2023-03-08T07:53:02;99030.09;;;16.53;35.40
53550;BME280;67273;52.914;-0.982;2023-03-08T07:55:29;99030.91;;;16.53;35.29
53550;BME280;67273;52.914;-0.982;2023-03-08T07:57:55;99032.00;;;16.52;35.44
53550;BME280;67273;52.914;-0.982;2023-03-08T08:00:21;99036.34;;;16.53;35.49
53550;BME280;67273;52.914;-0.982;2023-03-08T08:02:47;99023.59;;;16.59;35.74
53550;BME280;67273;52.914;-0.982;2023-03-08T08:05:14;99016.84;;;16.62;35.95
53550;BME280;67273;52.914;-0.982;2023-03-08T08:07:40;99021.78;;;16.75;36.46
53550;BME280;67273;52.914;-0.982;2023-03-08T08:10:06;99029.97;;;16.85;37.29
53550;BME280;67273;52.914;-0.982;2023-03-08T08:12:33;99022.66;;;16.91;37.59
53550;BME280;67273;52.914;-0.982;2023-03-08T08:14:58;99025.13;;;16.98;37.72
53550;BME280;67273;52.914;-0.982;2023-03-08T08:17:24;99023.22;;;17.03;37.90
53550;BME280;67273;52.914;-0.982;2023-03-08T08:19:50;99033.56;;;17.06;37.74
53550;BME280;67273;52.914;-0.982;2023-03-08T08:22:17;99036.00;;;17.08;37.99
53550;BME280;67273;52.914;-0.982;2023-03-08T08:24:43;99035.75;;;17.09;38.34
53550;BME280;67273;52.914;-0.982;2023-03-08T08:27:09;99043.31;;;16.97;38.63
53550;BME280;67273;52.914;-0.982;2023-03-08T08:29:36;99041.38;;;16.87;38.54
53550;BME280;67273;52.914;-0.982;2023-03-08T08:32:02;99033.78;;;16.84;38.76
53550;BME280;67273;52.914;-0.982;2023-03-08T08:34:28;99038.59;;;16.82;39.38
53550;BME280;67273;52.914;-0.982;2023-03-08T08:36:54;99037.81;;;16.82;39.62
53550;BME280;67273;52.914;-0.982;2023-03-08T08:39:21;99033.47;;;16.81;39.48
53550;BME280;67273;52.914;-0.982;2023-03-08T08:41:47;99037.00;;;16.81;40.32
53550;BME280;67273;52.914;-0.982;2023-03-08T08:44:13;99035.34;;;16.80;40.52
53550;BME280;67273;52.914;-0.982;2023-03-08T08:46:39;99033.19;;;16.77;40.54
53550;BME280;67273;52.914;-0.982;2023-03-08T08:49:05;99037.53;;;16.78;40.16
53550;BME280;67273;52.914;-0.982;2023-03-08T08:51:31;99036.72;;;16.78;40.34
53550;BME280;67273;52.914;-0.982;2023-03-08T08:53:57;99030.47;;;16.77;39.88
53550;BME280;67273;52.914;-0.982;2023-03-08T08:56:26;99029.66;;;16.77;39.66
53550;BME280;67273;52.914;-0.982;2023-03-08T08:58:52;99036.16;;;16.76;39.77
53550;BME280;67273;52.914;-0.982;2023-03-08T09:01:20;99039.69;;;16.76;39.99
53550;BME280;67273;52.914;-0.982;2023-03-08T09:03:48;99036.97;;;16.76;39.67
53550;BME280;67273;52.914;-0.982;2023-03-08T09:06:14;99043.03;;;16.94;42.13
53550;BME280;67273;52.914;-0.982;2023-03-08T09:08:40;99057.69;;;17.03;42.69
53550;BME280;67273;52.914;-0.982;2023-03-08T09:11:08;99055.81;;;17.08;42.25
53550;BME280;67273;52.914;-0.982;2023-03-08T09:13:36;99042.81;;;17.16;42.37
53550;BME280;67273;52.914;-0.982;2023-03-08T09:16:16;99044.44;;;17.12;41.45
53550;BME280;67273;52.914;-0.982;2023-03-08T09:18:42;99050.94;;;17.10;42.27
53550;BME280;67273;52.914;-0.982;2023-03-08T09:21:08;99047.41;;;17.15;41.90
53550;BME280;67273;52.914;-0.982;2023-03-08T09:23:33;99045.25;;;17.17;41.90
53550;BME280;67273;52.914;-0.982;2023-03-08T09:25:59;99048.50;;;17.19;41.79
53550;BME280;67273;52.914;-0.982;2023-03-08T09:28:25;99044.19;;;17.23;41.98
53550;BME280;67273;52.914;-0.982;2023-03-08T09:30:52;99045.28;;;17.27;41.46
53550;BME280;67273;52.914;-0.982;2023-03-08T09:33:18;99048.00;;;17.33;41.62
53550;BME280;67273;52.914;-0.982;2023-03-08T09:35:43;99044.75;;;17.31;41.58
53550;BME280;67273;52.914;-0.982;2023-03-08T09:38:09;99039.84;;;17.27;40.94
53550;BME280;67273;52.914;-0.982;2023-03-08T09:40:42;99034.41;;;17.27;41.25
53550;BME280;67273;52.914;-0.982;2023-03-08T09:43:19;99021.66;;;17.28;40.42
53550;BME280;67273;52.914;-0.982;2023-03-08T09:45:52;99023.03;;;17.31;40.29
53550;BME280;67273;52.914;-0.982;2023-03-08T09:48:21;99012.16;;;17.31;40.56
53550;BME280;67273;52.914;-0.982;2023-03-08T09:50:50;99015.44;;;17.33;40.21
53550;BME280;67273;52.914;-0.982;2023-03-08T09:53:21;99007.81;;;17.35;40.19
53550;BME280;67273;52.914;-0.982;2023-03-08T09:55:52;99005.66;;;17.37;40.20
53550;BME280;67273;52.914;-0.982;2023-03-08T09:58:31;99005.66;;;17.37;40.61
53550;BME280;67273;52.914;-0.982;2023-03-08T10:01:11;99006.75;;;17.36;40.06
53550;BME280;67273;52.914;-0.982;2023-03-08T10:04:09;99010.00;;;17.33;40.28
53550;BME280;67273;52.914;-0.982;2023-03-08T10:06:44;99010.00;;;17.38;40.23
53550;BME280;67273;52.914;-0.982;2023-03-08T10:09:15;99014.31;;;17.39;40.40
53550;BME280;67273;52.914;-0.982;2023-03-08T10:11:52;99000.50;;;17.40;40.28
53550;BME280;67273;52.914;-0.982;2023-03-08T10:14:25;99007.28;;;17.43;40.47
53550;BME280;67273;52.914;-0.982;2023-03-08T10:16:57;99005.38;;;17.43;40.96
53550;BME280;67273;52.914;-0.982;2023-03-08T10:19:29;98998.59;;;17.46;40.74
53550;BME280;67273;52.914;-0.982;2023-03-08T10:21:56;99004.00;;;17.46;40.73
53550;BME280;67273;52.914;-0.982;2023-03-08T10:24:25;99007.25;;;17.48;40.87
53550;BME280;67273;52.914;-0.982;2023-03-08T10:26:54;99008.91;;;17.49;40.66
53550;BME280;67273;52.914;-0.982;2023-03-08T10:29:24;99012.97;;;17.52;40.48
53550;BME280;67273;52.914;-0.982;2023-03-08T10:31:50;99004.81;;;17.52;40.71
53550;BME280;67273;52.914;-0.982;2023-03-08T10:34:19;99001.31;;;17.51;40.62
53550;BME280;67273;52.914;-0.982;2023-03-08T10:36:47;99007.53;;;17.31;41.40
53550;BME280;67273;52.914;-0.982;2023-03-08T10:39:14;99012.41;;;17.19;43.23
53550;BME280;67273;52.914;-0.982;2023-03-08T10:41:42;99003.47;;;17.44;42.75
53550;BME280;67273;52.914;-0.982;2023-03-08T10:44:13;99008.91;;;17.70;42.13
53550;BME280;67273;52.914;-0.982;2023-03-08T10:46:46;99006.19;;;17.75;42.21
53550;BME280;67273;52.914;-0.982;2023-03-08T10:49:17;99007.81;;;17.71;42.02
53550;BME280;67273;52.914;-0.982;2023-03-08T10:51:54;99003.47;;;17.70;41.78
53550;BME280;67273;52.914;-0.982;2023-03-08T10:54:20;99007.00;;;17.70;41.44
53550;BME280;67273;52.914;-0.982;2023-03-08T10:59:49;99014.34;;;17.70;41.61
53550;BME280;67273;52.914;-0.982;2023-03-08T11:02:17;99005.63;;;17.67;41.07
53550;BME280;67273;52.914;-0.982;2023-03-08T11:04:52;98998.59;;;17.66;40.78
53550;BME280;67273;52.914;-0.982;2023-03-08T11:07:21;99007.81;;;17.65;40.85
53550;BME280;67273;52.914;-0.982;2023-03-08T11:09:48;98990.97;;;17.68;40.73
53550;BME280;67273;52.914;-0.982;2023-03-08T11:12:21;98995.88;;;17.82;40.32
53550;BME280;67273;52.914;-0.982;2023-03-08T11:14:48;98993.41;;;17.91;40.00
53550;BME280;67273;52.914;-0.982;2023-03-08T11:17:18;98996.13;;;17.96;39.78
53550;BME280;67273;52.914;-0.982;2023-03-08T11:19:52;98995.56;;;18.04;40.00
53550;BME280;67273;52.914;-0.982;2023-03-08T11:22:36;98995.53;;;18.14;39.82
53550;BME280;67273;52.914;-0.982;2023-03-08T11:25:17;98994.41;;;18.26;39.87
53550;BME280;67273;52.914;-0.982;2023-03-08T11:28:06;98995.19;;;18.36;39.55
53550;BME280;67273;52.914;-0.982;2023-03-08T11:30:47;98988.66;;;18.42;39.59
53550;BME280;67273;52.914;-0.982;2023-03-08T11:33:39;98991.63;;;18.51;39.33
53550;BME280;67273;52.914;-0.982;2023-03-08T11:36:20;98996.19;;;18.56;39.17
53550;BME280;67273;52.914;-0.982;2023-03-08T11:38:53;98999.44;;;18.63;38.92
53550;BME280;67273;52.914;-0.982;2023-03-08T11:41:25;98997.75;;;18.72;38.71
53550;BME280;67273;52.914;-0.982;2023-03-08T11:44:11;99002.09;;;18.78;38.61
53550;BME280;67273;52.914;-0.982;2023-03-08T11:46:51;99002.06;;;18.89;38.35
53550;BME280;67273;52.914;-0.982;2023-03-08T11:49:29;99008.84;;;18.21;39.56
53550;BME280;67273;52.914;-0.982;2023-03-08T11:52:02;99006.97;;;18.06;40.92
53550;BME280;67273;52.914;-0.982;2023-03-08T11:54:41;99004.00;;;18.02;41.87
53550;BME280;67273;52.914;-0.982;2023-03-08T11:57:13;98996.47;;;18.54;42.42
53550;BME280;67273;52.914;-0.982;2023-03-08T11:59:42;98990.69;;;18.82;40.79
53550;BME280;67273;52.914;-0.982;2023-03-08T12:02:12;98990.00;;;19.00;39.68
53550;BME280;67273;52.914;-0.982;2023-03-08T12:04:54;98992.94;;;19.09;39.33
53550;BME280;67273;52.914;-0.982;2023-03-08T12:07:31;98988.28;;;19.14;38.84
53550;BME280;67273;52.914;-0.982;2023-03-08T12:10:05;98973.59;;;19.15;38.55
53550;BME280;67273;52.914;-0.982;2023-03-08T12:12:38;98968.09;;;19.21;37.96
53550;BME280;67273;52.914;-0.982;2023-03-08T12:15:10;98981.41;;;19.22;37.66
53550;BME280;67273;52.914;-0.982;2023-03-08T12:17:41;98986.03;;;19.22;37.50
53550;BME280;67273;52.914;-0.982;2023-03-08T12:22:44;98985.53;;;19.19;37.37
53550;BME280;67273;52.914;-0.982;2023-03-08T12:25:17;98977.06;;;19.21;37.19
53550;BME280;67273;52.914;-0.982;2023-03-08T12:27:49;98979.28;;;19.19;37.18
53550;BME280;67273;52.914;-0.982;2023-03-08T12:30:25;98982.28;;;19.17;37.21
53550;BME280;67273;52.914;-0.982;2023-03-08T12:32:53;98974.09;;;19.17;37.08
53550;BME280;67273;52.914;-0.982;2023-03-08T12:35:27;98986.34;;;19.15;37.26
53550;BME280;67273;52.914;-0.982;2023-03-08T12:37:59;98977.09;;;19.16;37.37
53550;BME280;67273;52.914;-0.982;2023-03-08T12:40:28;98984.13;;;19.22;37.41
53550;BME280;67273;52.914;-0.982;2023-03-08T12:43:03;98981.13;;;19.24;37.61
53550;BME280;67273;52.914;-0.982;2023-03-08T12:45:29;98973.19;;;19.27;37.63
53550;BME280;67273;52.914;-0.982;2023-03-08T12:47:59;98968.00;;;19.31;37.73
53550;BME280;67273;52.914;-0.982;2023-03-08T12:50:27;98963.09;;;19.33;37.80
53550;BME280;67273;52.914;-0.982;2023-03-08T12:52:53;98963.03;;;19.38;37.58
53550;BME280;67273;52.914;-0.982;2023-03-08T12:55:25;98967.41;;;19.39;37.54
53550;BME280;67273;52.914;-0.982;2023-03-08T12:57:58;98963.59;;;19.40;37.72
53550;BME280;67273;52.914;-0.982;2023-03-08T13:00:28;98958.66;;;19.42;37.84
53550;BME280;67273;52.914;-0.982;2023-03-08T13:03:02;98966.25;;;19.45;37.85
53550;BME280;67273;52.914;-0.982;2023-03-08T13:05:32;98970.03;;;19.49;38.15